Time;durP1;ratioP1;P1;durP2;ratioP2;P2;SDS_P1;SDS_P2;PMS_P1;PMS_P2;Temp;Humidity;BMP_temperature;BMP_pressure;BME280_temperature;BME280_humidity;BME280_pressure;Samples;Min_cycle;Max_cycle;Signal;HPM_P1;HPM_P2
2021/12/16 00:09:00;;;;;;;99.78;43.42;;;3.00;99.90;;;;;;6109322;23;20037;-88
2021/12/16 00:34:00;;;;;;;116.03;42.85;;;2.90;99.90;;;;;;6104987;23;20038;-88
2021/12/16 00:36:53;;;;;;;92.53;37.75;;;2.80;99.90;;;;;;6184519;23;20021;-88
2021/12/16 00:39:51;;;;;;;102.03;39.53;;;2.80;99.90;;;;;;6163563;23;20116;-89
2021/12/16 00:42:48;;;;;;;100.60;37.90;;;2.80;99.90;;;;;;6163443;23;20018;-89
2021/12/16 00:49:07;;;;;;;110.20;41.70;;;2.80;99.90;;;;;;6148081;23;20029;-89
2021/12/16 00:55:44;;;;;;;109.80;38.88;;;2.80;99.90;;;;;;6163700;23;20025;-89
2021/12/16 00:58:43;;;;;;;109.90;39.85;;;2.80;99.90;;;;;;6164496;23;20286;-88
2021/12/16 01:05:04;;;;;;;128.98;41.67;;;2.80;99.90;;;;;;6164929;23;20033;-88
2021/12/16 01:08:11;;;;;;;131.65;41.63;;;2.80;99.90;;;;;;6164724;23;20064;-89
2021/12/16 01:33:46;;;;;;;130.35;40.05;;;2.70;99.90;;;;;;6194355;23;20049;-88
2021/12/16 01:49:15;;;;;;;135.73;40.53;;;2.70;99.90;;;;;;6159740;23;20073;-89
2021/12/16 01:55:15;;;;;;;141.13;41.85;;;2.80;99.90;;;;;;6193144;23;20029;-87
2021/12/16 01:58:13;;;;;;;147.07;42.40;;;2.70;99.90;;;;;;6194112;23;20029;-88
2021/12/16 02:01:33;;;;;;;147.80;40.30;;;2.80;99.90;;;;;;6173471;23;20427;-86
2021/12/16 02:04:30;;;;;;;153.45;41.83;;;2.70;99.90;;;;;;6173694;23;20132;-89
2021/12/16 02:07:34;;;;;;;138.02;40.75;;;2.70;99.90;;;;;;6155704;23;20032;-90
2021/12/16 02:10:35;;;;;;;137.68;40.33;;;2.70;99.90;;;;;;6192251;23;20028;-91
2021/12/16 02:29:23;;;;;;;148.02;41.35;;;2.70;99.90;;;;;;6191162;23;20039;-88
2021/12/16 02:32:42;;;;;;;149.02;43.53;;;2.70;99.90;;;;;;6178485;23;20029;-88
2021/12/16 02:35:46;;;;;;;149.52;43.42;;;2.70;99.90;;;;;;6165849;23;20029;-88
2021/12/16 02:39:01;;;;;;;173.82;44.88;;;2.70;99.90;;;;;;6183538;23;20021;-88
2021/12/16 02:42:13;;;;;;;162.40;46.58;;;2.70;99.90;;;;;;6199917;23;20021;-90
2021/12/16 02:48:35;;;;;;;116.25;34.58;;;2.70;99.90;;;;;;6191504;23;20017;-90
2021/12/16 02:51:26;;;;;;;156.57;45.28;;;2.70;99.90;;;;;;6137118;23;20029;-89
2021/12/16 02:54:15;;;;;;;158.77;43.72;;;2.70;99.90;;;;;;6192136;23;20025;-90
2021/12/16 02:57:03;;;;;;;150.07;44.25;;;2.70;99.90;;;;;;6170515;23;20099;-91
2021/12/16 02:59:53;;;;;;;160.05;46.30;;;2.70;99.90;;;;;;6171520;23;20389;-89
2021/12/16 03:02:45;;;;;;;148.60;44.47;;;2.70;99.90;;;;;;6189709;23;20040;-86
2021/12/16 03:05:46;;;;;;;145.90;42.70;;;2.70;99.90;;;;;;6194380;23;20089;-91
2021/12/16 03:08:35;;;;;;;141.68;40.90;;;2.70;99.90;;;;;;6171990;23;20119;-88
2021/12/16 03:11:58;;;;;;;152.02;43.03;;;2.70;99.90;;;;;;6171961;23;20120;-89
2021/12/16 03:14:54;;;;;;;157.70;44.15;;;2.70;99.90;;;;;;6170871;23;20036;-89
2021/12/16 03:17:56;;;;;;;156.25;44.83;;;2.70;99.90;;;;;;6152113;23;20050;-88
2021/12/16 03:20:50;;;;;;;166.57;46.08;;;2.70;99.90;;;;;;6156455;23;20056;-90
2021/12/16 03:23:52;;;;;;;156.55;43.28;;;2.70;99.90;;;;;;6197691;23;20029;-91
2021/12/16 03:27:32;;;;;;;161.50;43.83;;;2.60;99.90;;;;;;6200477;23;20092;-88
2021/12/16 03:39:12;;;;;;;153.60;42.80;;;2.70;99.90;;;;;;6196349;23;20025;-88
2021/12/16 03:42:04;;;;;;;147.43;41.65;;;2.70;99.90;;;;;;6173989;23;20417;-88
2021/12/16 03:45:00;;;;;;;154.60;45.53;;;2.70;99.90;;;;;;6138256;23;20087;-90
2021/12/16 03:47:52;;;;;;;137.63;42.05;;;2.70;99.90;;;;;;6196242;23;20164;-89
2021/12/16 03:50:40;;;;;;;147.18;41.58;;;2.70;99.90;;;;;;6141511;23;20060;-90
2021/12/16 03:53:34;;;;;;;142.23;42.75;;;2.70;99.90;;;;;;6180972;23;20021;-90
2021/12/16 03:56:24;;;;;;;130.45;40.90;;;2.70;99.90;;;;;;6210510;23;20062;-91
2021/12/16 03:59:17;;;;;;;146.20;41.35;;;2.70;99.90;;;;;;6187079;23;20013;-89
2021/12/16 04:02:10;;;;;;;135.68;40.20;;;2.70;99.90;;;;;;6188461;23;20101;-88
2021/12/16 04:05:06;;;;;;;146.65;41.70;;;2.70;99.90;;;;;;6210592;23;20025;-90
2021/12/16 04:07:56;;;;;;;141.95;40.38;;;2.70;99.90;;;;;;6190549;23;20032;-90
2021/12/16 04:11:12;;;;;;;134.35;39.80;;;2.70;99.90;;;;;;6189251;23;20024;-89
2021/12/16 04:14:03;;;;;;;135.18;39.67;;;2.70;99.90;;;;;;6189175;23;20017;-87
2021/12/16 04:17:07;;;;;;;138.73;39.50;;;2.70;99.90;;;;;;6208161;23;20377;-88
2021/12/16 04:20:06;;;;;;;126.13;38.50;;;2.70;99.90;;;;;;6181635;23;20031;-88
2021/12/16 04:23:08;;;;;;;126.43;37.83;;;2.70;99.90;;;;;;6207180;23;20025;-89
2021/12/16 04:25:58;;;;;;;120.32;38.35;;;2.70;99.90;;;;;;6183036;23;20033;-91
2021/12/16 04:28:46;;;;;;;120.10;37.67;;;2.70;99.90;;;;;;6181997;23;20036;-87
2021/12/16 04:31:38;;;;;;;120.03;38.22;;;2.70;99.90;;;;;;6174395;23;20036;-89
2021/12/16 04:34:28;;;;;;;110.32;36.30;;;2.70;99.90;;;;;;6192650;23;20048;-88
2021/12/16 04:37:16;;;;;;;117.38;37.05;;;2.70;99.90;;;;;;6134430;23;20020;-87
2021/12/16 04:40:09;;;;;;;116.60;36.90;;;2.70;99.90;;;;;;6173530;23;20304;-90
2021/12/16 04:43:01;;;;;;;139.93;40.00;;;2.70;99.90;;;;;;6170998;23;20024;-87
2021/12/16 04:45:50;;;;;;;150.00;43.20;;;2.70;99.90;;;;;;6173292;23;20099;-91
2021/12/16 04:48:40;;;;;;;145.23;39.97;;;2.70;99.90;;;;;;6195254;23;20021;-89
2021/12/16 04:51:35;;;;;;;155.80;42.55;;;2.70;99.90;;;;;;6172802;23;20025;-90
2021/12/16 04:54:25;;;;;;;142.30;41.70;;;2.70;99.90;;;;;;6193739;23;20028;-88
2021/12/16 04:57:15;;;;;;;138.95;40.88;;;2.70;99.90;;;;;;6173281;23;20364;-91
2021/12/16 05:00:06;;;;;;;147.20;43.28;;;2.70;99.90;;;;;;6173003;23;20060;-88
2021/12/16 05:03:18;;;;;;;;;;;;;;;;;;;;;
2021/12/16 05:06:32;;;;;;;;;;;2.70;99.90;;;;;;6194561;23;20023;-88
2021/12/16 05:12:25;;;;;;;189.80;45.85;;;2.70;99.90;;;;;;6191612;23;20024;-88
2021/12/16 05:15:21;;;;;;;182.02;46.95;;;2.80;99.90;;;;;;6173091;23;20029;-88
2021/12/16 05:18:12;;;;;;;197.05;45.20;;;2.70;99.90;;;;;;6177287;23;20029;-89
2021/12/16 05:21:12;;;;;;;251.13;49.10;;;2.70;99.90;;;;;;6182843;23;20035;-88
2021/12/16 05:24:25;;;;;;;253.77;50.45;;;2.60;99.90;;;;;;6180119;23;20053;-90
2021/12/16 05:27:20;;;;;;;531.10;62.28;;;2.70;99.90;;;;;;6160611;23;20029;-88
2021/12/16 05:30:13;;;;;;;707.80;68.82;;;2.70;99.90;;;;;;6177202;23;20116;-92
2021/12/16 05:33:12;;;;;;;688.53;67.82;;;2.70;99.90;;;;;;6161163;23;20032;-91
2021/12/16 05:36:03;;;;;;;410.88;53.90;;;2.70;99.90;;;;;;6176839;23;20033;-90
2021/12/16 05:39:05;;;;;;;248.20;39.40;;;2.70;99.90;;;;;;6172014;23;20035;-90
2021/12/16 05:42:00;;;;;;;358.80;51.33;;;2.70;99.90;;;;;;6174530;23;20044;-88
2021/12/16 05:44:48;;;;;;;409.75;53.53;;;2.60;99.90;;;;;;6191572;23;20037;-88
2021/12/16 05:47:37;;;;;;;571.10;58.28;;;2.60;99.90;;;;;;6170467;23;20021;-87
2021/12/16 05:50:40;;;;;;;353.80;49.47;;;2.60;99.90;;;;;;6193050;23;20036;-90
2021/12/16 05:53:29;;;;;;;387.33;52.97;;;2.60;99.90;;;;;;6173691;23;20024;-87
2021/12/16 05:56:23;;;;;;;530.40;58.80;;;2.60;99.90;;;;;;6173949;23;20045;-88
2021/12/16 05:59:14;;;;;;;282.30;49.90;;;2.60;99.90;;;;;;6155324;23;20416;-89
2021/12/16 06:02:10;;;;;;;270.30;47.35;;;2.60;99.90;;;;;;6191643;23;20236;-89
2021/12/16 06:05:07;;;;;;;233.63;45.78;;;2.70;99.90;;;;;;6174983;23;20024;-88
2021/12/16 06:08:17;;;;;;;261.27;46.50;;;2.70;99.90;;;;;;6178652;23;20053;-89
2021/12/16 06:11:21;;;;;;;239.80;45.90;;;2.70;99.90;;;;;;6196285;23;20052;-89
2021/12/16 06:14:41;;;;;;;250.77;47.80;;;2.70;99.90;;;;;;6172854;23;20024;-91
2021/12/16 06:27:13;;;;;;;;;;;2.90;99.90;;;;;;6192007;23;20029;-90
2021/12/16 06:30:06;;;;;;;225.73;43.07;;;2.90;99.90;;;;;;6169286;23;20311;-90
2021/12/16 06:33:10;;;;;;;241.90;44.70;;;2.90;99.90;;;;;;6174241;23;20294;-89
2021/12/16 06:36:11;;;;;;;233.32;43.58;;;2.90;99.90;;;;;;6175458;23;20104;-92
2021/12/16 06:39:07;;;;;;;210.70;41.58;;;2.90;99.90;;;;;;6138725;23;20091;-90
2021/12/16 06:42:06;;;;;;;228.18;43.78;;;2.90;99.90;;;;;;6193851;23;20029;-89
2021/12/16 06:45:04;;;;;;;213.27;41.13;;;2.90;99.90;;;;;;6192673;23;20099;-87
2021/12/16 06:47:58;;;;;;;198.32;41.22;;;2.80;99.90;;;;;;6170584;23;20040;-89
2021/12/16 06:50:58;;;;;;;234.77;43.75;;;2.80;99.90;;;;;;6173586;23;20024;-90
2021/12/16 06:54:04;;;;;;;202.95;41.20;;;2.80;99.90;;;;;;6171041;23;20025;-91
2021/12/16 06:57:37;;;;;;;230.20;44.67;;;2.80;99.90;;;;;;6193741;23;20077;-87
2021/12/16 07:00:38;;;;;;;230.57;45.88;;;2.70;99.90;;;;;;6158018;23;20369;-88
2021/12/16 07:03:29;;;;;;;220.15;43.65;;;2.70;99.90;;;;;;6176375;23;20087;-90
2021/12/16 07:28:07;;;;;;;;;;;;;;;;;;;;;
2021/12/16 07:30:56;;;;;;;178.38;40.92;;;2.80;99.90;;;;;;6190113;23;20035;-87
2021/12/16 07:33:46;;;;;;;181.40;42.58;;;2.80;99.90;;;;;;6167453;23;20051;-91
2021/12/16 07:36:59;;;;;;;165.30;41.85;;;2.80;99.90;;;;;;6188034;23;20408;-91
2021/12/16 07:39:52;;;;;;;175.68;42.17;;;2.80;99.90;;;;;;6169989;23;20040;-89
2021/12/16 07:42:59;;;;;;;170.13;39.75;;;2.80;99.90;;;;;;6150149;23;20037;-90
2021/12/16 07:46:02;;;;;;;154.77;40.75;;;2.90;99.90;;;;;;6174221;23;20108;-88
2021/12/16 07:49:08;;;;;;;154.30;38.50;;;2.90;99.90;;;;;;6199089;23;20087;-88
2021/12/16 07:52:09;;;;;;;142.02;37.13;;;2.90;99.90;;;;;;6138998;23;20095;-87
2021/12/16 07:54:57;;;;;;;137.57;35.85;;;2.90;99.90;;;;;;6168902;23;20103;-88
2021/12/16 07:57:45;;;;;;;136.70;36.75;;;2.90;99.90;;;;;;6150727;23;20062;-90
2021/12/16 08:00:39;;;;;;;146.63;37.53;;;3.00;99.90;;;;;;6172930;23;20036;-90
2021/12/16 08:03:41;;;;;;;139.07;37.60;;;3.00;99.90;;;;;;6176687;23;20192;-90
2021/12/16 08:06:49;;;;;;;130.85;35.33;;;3.00;99.90;;;;;;6172253;23;20026;-89
2021/12/16 08:10:29;;;;;;;126.32;35.90;;;3.10;99.90;;;;;;6175017;23;20070;-92
2021/12/16 08:13:23;;;;;;;121.65;34.25;;;3.10;99.90;;;;;;6170450;23;20108;-90
2021/12/16 08:16:32;;;;;;;119.07;36.13;;;3.10;99.90;;;;;;6161998;23;20032;-88
2021/12/16 08:19:20;;;;;;;128.05;41.88;;;3.10;99.90;;;;;;6172562;23;20036;-90
2021/12/16 08:22:17;;;;;;;129.25;40.53;;;3.10;99.90;;;;;;6173578;23;20145;-91
2021/12/16 08:25:23;;;;;;;110.40;33.20;;;3.10;99.90;;;;;;6179364;23;20049;-90
2021/12/16 08:28:27;;;;;;;;;;;;;;;;;;;;;
2021/12/16 08:34:47;;;;;;;112.88;33.22;;;3.20;99.90;;;;;;6200347;23;20029;-90
2021/12/16 08:37:46;;;;;;;113.25;35.08;;;3.20;99.90;;;;;;6199391;23;20025;-88
2021/12/16 08:40:53;;;;;;;120.57;36.35;;;3.20;99.90;;;;;;6160239;23;20056;-89
2021/12/16 08:43:50;;;;;;;104.32;34.70;;;3.20;99.90;;;;;;6142419;23;20025;-89
2021/12/16 08:47:06;;;;;;;109.45;34.55;;;3.20;99.90;;;;;;6126249;23;20022;-89
2021/12/16 08:50:37;;;;;;;118.55;35.28;;;3.20;99.90;;;;;;6018717;23;20016;-86
2021/12/16 08:53:35;;;;;;;103.78;34.08;;;3.20;99.90;;;;;;6033210;23;20015;-90
2021/12/16 08:56:32;;;;;;;112.88;36.05;;;3.30;99.90;;;;;;6034197;23;20024;-89
2021/12/16 08:59:31;;;;;;;104.15;34.90;;;3.30;99.90;;;;;;6175023;23;20049;-90
2021/12/16 09:02:22;;;;;;;94.70;33.97;;;3.30;99.90;;;;;;6157681;23;20013;-88
2021/12/16 09:05:17;;;;;;;100.57;34.33;;;3.40;99.90;;;;;;6177636;23;20087;-89
2021/12/16 09:08:19;;;;;;;99.47;34.35;;;3.40;99.90;;;;;;6188121;23;20104;-89
2021/12/16 09:11:17;;;;;;;97.43;31.83;;;3.50;99.90;;;;;;6151274;23;20017;-91
2021/12/16 09:14:17;;;;;;;92.25;31.67;;;3.50;99.90;;;;;;6131494;23;20049;-91
2021/12/16 09:17:14;;;;;;;82.00;31.08;;;3.50;99.90;;;;;;6119811;23;20026;-88
2021/12/16 09:20:09;;;;;;;81.78;30.98;;;3.50;99.90;;;;;;6165459;23;20020;-89
2021/12/16 09:23:03;;;;;;;81.93;31.88;;;3.60;99.90;;;;;;6180194;23;20033;-89
2021/12/16 09:25:51;;;;;;;77.38;30.48;;;3.60;99.90;;;;;;6179545;23;20029;-90
2021/12/16 09:28:47;;;;;;;73.50;27.50;;;3.60;99.90;;;;;;6156410;23;20026;-89
2021/12/16 09:31:39;;;;;;;71.57;26.92;;;3.70;99.90;;;;;;6180695;23;20093;-89
2021/12/16 09:34:33;;;;;;;63.22;25.48;;;3.80;99.90;;;;;;6178462;23;20009;-91
2021/12/16 09:37:30;;;;;;;61.20;26.35;;;3.90;99.90;;;;;;6178968;23;20089;-88
2021/12/16 09:40:28;;;;;;;58.45;24.38;;;4.00;99.90;;;;;;6188232;23;20029;-88
2021/12/16 09:43:31;;;;;;;55.03;25.33;;;4.00;99.90;;;;;;6168065;23;20028;-89
2021/12/16 09:46:44;;;;;;;55.97;25.25;;;4.10;99.90;;;;;;6206486;23;20091;-91
2021/12/16 09:49:45;;;;;;;50.15;23.15;;;4.20;99.90;;;;;;6205458;23;20028;-89
2021/12/16 09:53:05;;;;;;;52.58;25.33;;;4.30;99.90;;;;;;6180958;23;20025;-89
2021/12/16 09:56:08;;;;;;;54.22;24.77;;;4.30;99.90;;;;;;6180114;23;20021;-89
2021/12/16 09:59:16;;;;;;;48.40;23.27;;;4.40;99.90;;;;;;6188734;23;20033;-87
2021/12/16 10:02:12;;;;;;;48.95;23.77;;;4.40;99.90;;;;;;6228470;23;20028;-89
2021/12/16 10:05:11;;;;;;;45.78;23.17;;;4.50;99.90;;;;;;6206534;23;20036;-88
2021/12/16 10:08:09;;;;;;;50.20;23.95;;;4.70;99.90;;;;;;6210032;23;20028;-90
2021/12/16 10:10:59;;;;;;;44.10;22.23;;;4.70;99.90;;;;;;6189585;23;20019;-88
2021/12/16 10:14:04;;;;;;;45.78;22.67;;;4.70;99.90;;;;;;6207459;23;20098;-91
2021/12/16 10:17:24;;;;;;;44.70;23.85;;;4.80;99.90;;;;;;6192783;23;20013;-89
2021/12/16 10:20:40;;;;;;;44.35;22.10;;;4.90;99.90;;;;;;6198781;23;20009;-90
2021/12/16 10:24:07;;;;;;;36.95;20.27;;;5.00;99.90;;;;;;6211249;23;20013;-91
2021/12/16 10:30:00;;;;;;;39.35;22.60;;;5.20;99.90;;;;;;6181558;23;20013;-89
2021/12/16 10:33:18;;;;;;;45.63;23.50;;;5.20;99.90;;;;;;6162309;23;20028;-88
2021/12/16 10:47:24;;;;;;;35.22;18.50;;;5.20;99.90;;;;;;6187421;22;1688783;-90
2021/12/16 10:50:38;;;;;;;;;;;;;;;;;;;;;
2021/12/16 10:53:56;;;;;;;38.83;20.65;;;5.00;99.90;;;;;;6246396;22;20028;-89
2021/12/16 10:57:27;;;;;;;;;;;;;;;;;;;;;
2021/12/16 11:00:18;;;;;;;44.65;23.73;;;5.00;99.90;;;;;;6247999;22;20036;-90
2021/12/16 11:03:46;;;;;;;51.72;23.77;;;5.00;99.90;;;;;;6251397;22;20031;-91
2021/12/16 11:07:16;;;;;;;44.15;22.15;;;4.90;99.90;;;;;;6291600;22;20058;-91
2021/12/16 11:10:28;;;;;;;;;;;;;;;;;;;;;
2021/12/16 11:13:40;;;;;;;;;;;;;;;;;;;;;
2021/12/16 11:16:33;;;;;;;42.92;20.92;;;5.00;99.90;;;;;;6280141;22;20018;-89
2021/12/16 11:20:22;;;;;;;41.80;20.88;;;5.00;99.90;;;;;;6276344;23;20027;-88
2021/12/16 11:23:40;;;;;;;37.55;20.70;;;5.20;99.90;;;;;;6272970;23;20039;-91
2021/12/16 11:26:57;;;;;;;;;;;;;;;;;;;;;
2021/12/16 11:33:16;;;;;;;35.97;18.88;;;5.50;99.90;;;;;;6271743;23;20028;-91
2021/12/16 11:36:52;;;;;;;;;;;;;;;;;;;;;
2021/12/16 11:40:20;;;;;;;31.85;18.38;;;5.50;99.90;;;;;;6269962;23;20073;-91
2021/12/16 11:43:12;;;;;;;33.25;18.25;;;5.50;99.90;;;;;;6249529;23;20020;-89
2021/12/16 11:46:28;;;;;;;;;;;;;;;;;;;;;
2021/12/16 11:49:40;;;;;;;30.10;18.98;;;5.60;99.90;;;;;;6260135;23;20103;-91
2021/12/16 11:52:54;;;;;;;;;;;;;;;;;;;;;
2021/12/16 11:55:56;;;;;;;28.63;17.33;;;5.70;99.90;;;;;;6244394;23;20039;-89
2021/12/16 11:59:05;;;;;;;32.15;18.75;;;5.70;99.90;;;;;;6231764;23;20032;-88
2021/12/16 12:02:19;;;;;;;33.08;18.88;;;5.60;99.90;;;;;;6233829;23;20024;-88
2021/12/16 12:09:00;;;;;;;33.97;18.75;;;5.50;99.90;;;;;;6235473;23;20029;-90
2021/12/16 12:12:01;;;;;;;36.30;19.20;;;5.50;99.90;;;;;;6214550;23;20065;-89
2021/12/16 12:15:14;;;;;;;;;;;;;;;;;;;;;
2021/12/16 12:18:06;;;;;;;33.83;18.42;;;5.60;99.90;;;;;;6232420;23;20025;-85
2021/12/16 12:21:56;;;;;;;32.67;19.05;;;5.60;99.90;;;;;;6233920;23;20083;-89
2021/12/16 12:24:51;;;;;;;32.95;19.08;;;5.60;99.90;;;;;;6215352;23;20024;-91
2021/12/16 12:27:44;;;;;;;31.15;18.80;;;5.60;99.90;;;;;;6191560;23;20098;-90
2021/12/16 12:30:51;;;;;;;34.47;19.17;;;5.50;99.90;;;;;;6232924;23;20055;-91
2021/12/16 12:33:58;;;;;;;31.60;18.40;;;5.50;99.90;;;;;;6232535;23;20034;-90
2021/12/16 12:40:22;;;;;;;30.42;16.90;;;5.80;99.90;;;;;;6201262;23;20080;-87
2021/12/16 12:43:20;;;;;;;28.90;17.83;;;5.80;99.90;;;;;;6211581;23;20035;-89
2021/12/16 12:46:22;;;;;;;25.13;15.30;;;5.80;99.90;;;;;;6212612;23;20059;-88
2021/12/16 12:49:29;;;;;;;;;;;;;;;;;;;;;
2021/12/16 12:52:23;;;;;;;24.77;15.98;;;5.90;99.90;;;;;;6232065;23;20025;-90
2021/12/16 12:55:18;;;;;;;28.08;15.82;;;5.90;99.90;;;;;;6211801;23;20031;-89
2021/12/16 12:58:16;;;;;;;28.50;17.10;;;6.00;99.90;;;;;;6209859;23;20025;-87
2021/12/16 13:01:15;;;;;;;26.35;16.27;;;5.90;99.90;;;;;;6229271;23;20072;-88
2021/12/16 13:04:31;;;;;;;26.38;15.23;;;5.80;99.90;;;;;;6206347;23;20301;-89
2021/12/16 13:07:38;;;;;;;25.15;15.45;;;5.90;99.90;;;;;;6209491;23;20029;-90
2021/12/16 13:10:57;;;;;;;22.67;14.45;;;5.90;99.90;;;;;;6209664;23;20028;-89
2021/12/16 13:14:15;;;;;;;24.95;15.43;;;5.80;99.90;;;;;;6233445;23;20029;-88
2021/12/16 13:35:22;;;;;;;;;;;;;;;;;;;;;
2021/12/16 13:38:38;;;;;;;26.38;15.57;;;6.20;99.90;;;;;;6177466;23;20020;-88
2021/12/16 13:42:00;;;;;;;23.17;14.90;;;6.20;99.90;;;;;;6207053;22;20105;-83
2021/12/16 13:45:50;;;;;;;25.23;16.08;;;6.20;99.90;;;;;;6102304;23;20026;-90
2021/12/16 14:03:08;;;;;;;24.48;15.43;;;6.20;99.90;;;;;;6116157;23;20306;-87
2021/12/16 14:10:14;;;;;;;23.25;14.48;;;6.00;99.90;;;;;;6103389;23;20050;-89
2021/12/16 14:34:58;;;;;;;24.50;14.63;;;5.50;99.90;;;;;;6234399;23;20021;-90
2021/12/16 14:48:56;;;;;;;16.67;11.75;;;5.30;99.90;;;;;;6204590;23;20021;-91
2021/12/16 14:51:59;;;;;;;18.33;11.75;;;5.30;99.90;;;;;;6181927;23;20116;-88
2021/12/16 14:55:11;;;;;;;21.85;13.23;;;5.30;99.90;;;;;;6168089;23;20036;-87
2021/12/16 14:58:17;;;;;;;23.85;13.60;;;5.20;99.90;;;;;;6182731;23;20044;-89
2021/12/16 15:01:18;;;;;;;19.83;12.43;;;5.20;99.90;;;;;;6206841;23;20021;-88
2021/12/16 15:04:32;;;;;;;24.90;12.80;;;5.10;99.90;;;;;;6189576;23;20045;-89
2021/12/16 15:07:35;;;;;;;21.25;13.02;;;5.10;99.90;;;;;;6202481;23;20033;-87
2021/12/16 15:11:09;;;;;;;19.63;12.65;;;5.10;99.90;;;;;;6204592;23;20080;-88
2021/12/16 15:14:39;;;;;;;21.92;13.05;;;5.10;99.90;;;;;;6181010;23;20029;-85
2021/12/16 15:35:44;;;;;;;24.70;13.90;;;4.50;99.90;;;;;;6199712;23;20029;-88
2021/12/16 15:40:36;;;;;;;23.50;13.38;;;4.40;99.90;;;;;;6180050;23;20025;-86
2021/12/16 15:43:45;;;;;;;31.25;16.40;;;4.20;99.90;;;;;;6183830;23;20021;-86
2021/12/16 15:46:51;;;;;;;32.33;17.48;;;4.10;99.90;;;;;;6181077;23;20040;-88
2021/12/16 15:49:44;;;;;;;35.20;21.35;;;4.00;99.90;;;;;;6194355;23;20028;-86
2021/12/16 15:53:06;;;;;;;33.72;20.13;;;3.90;99.90;;;;;;6196695;23;20033;-88
2021/12/16 15:56:43;;;;;;;33.95;18.77;;;3.90;99.90;;;;;;6197168;23;20021;-88
2021/12/16 15:59:50;;;;;;;29.52;17.10;;;3.80;99.90;;;;;;6198343;23;20017;-88
2021/12/16 16:02:44;;;;;;;29.13;17.92;;;3.70;99.90;;;;;;6196953;23;20025;-86
2021/12/16 16:05:50;;;;;;;29.20;17.02;;;3.50;99.90;;;;;;6191487;23;20044;-88
2021/12/16 16:08:46;;;;;;;30.15;17.95;;;3.50;99.90;;;;;;6193354;23;20024;-88
2021/12/16 16:11:52;;;;;;;30.02;17.80;;;3.30;99.90;;;;;;6190918;23;20060;-86
2021/12/16 16:15:10;;;;;;;;;;;;;;;;;;;;;
2021/12/16 16:21:23;;;;;;;40.42;19.75;;;3.10;99.90;;;;;;6192552;23;20025;-87
2021/12/16 16:24:29;;;;;;;37.15;18.95;;;3.00;99.90;;;;;;6218749;23;20029;-84
2021/12/16 16:27:25;;;;;;;51.15;26.85;;;2.90;99.90;;;;;;6199647;23;20111;-86
2021/12/16 16:30:15;;;;;;;56.50;27.63;;;2.80;99.90;;;;;;6198849;23;20128;-87
2021/12/16 16:33:17;;;;;;;54.92;26.20;;;2.80;99.90;;;;;;6180410;23;20036;-88
2021/12/16 16:36:11;;;;;;;51.10;24.88;;;2.80;99.90;;;;;;6227450;22;20088;-87
2021/12/16 16:39:04;;;;;;;55.55;27.88;;;2.90;99.90;;;;;;6202190;23;20333;-90
2021/12/16 16:42:45;;;;;;;61.20;30.13;;;2.80;99.90;;;;;;6211817;23;20052;-88
2021/12/16 16:46:28;;;;;;;;;;;;;;;;;;;;;
2021/12/16 16:49:49;;;;;;;64.50;28.67;;;2.90;99.90;;;;;;6229732;23;20079;-83
2021/12/16 16:52:46;;;;;;;61.83;28.38;;;2.90;99.90;;;;;;6194159;23;20044;-83
2021/12/16 16:55:46;;;;;;;65.22;29.85;;;3.00;99.90;;;;;;6211674;23;20020;-81
2021/12/16 16:58:34;;;;;;;66.40;29.55;;;2.90;99.90;;;;;;6216331;23;20030;-80
2021/12/16 17:01:30;;;;;;;64.47;29.75;;;2.80;99.90;;;;;;6193091;23;20115;-85
2021/12/16 17:04:19;;;;;;;63.80;28.98;;;2.80;99.90;;;;;;6196291;23;20115;-83
2021/12/16 17:07:07;;;;;;;63.47;29.33;;;2.80;99.90;;;;;;6198732;23;20028;-85
2021/12/16 17:09:54;;;;;;;62.90;28.70;;;2.70;99.90;;;;;;6193525;23;20043;-88
2021/12/16 17:12:42;;;;;;;58.30;25.83;;;2.60;99.90;;;;;;6211838;23;20520;-85
2021/12/16 17:17:12;;;;;;;53.50;24.55;;;2.50;99.90;;;;;;6210660;23;20052;-87
2021/12/16 17:18:55;;;;;;;52.08;25.80;;;2.50;99.90;;;;;;6230044;23;20039;-87
2021/12/16 17:21:55;;;;;;;61.30;27.23;;;2.40;99.90;;;;;;6211233;23;20035;-85
2021/12/16 17:24:58;;;;;;;64.00;27.73;;;2.30;99.90;;;;;;6192075;23;20103;-87
2021/12/16 17:28:08;;;;;;;54.60;25.90;;;2.30;99.90;;;;;;6194418;23;20139;-86
2021/12/16 17:35:32;;;;;;;;;;;;;;;;;;;;;
2021/12/16 17:43:51;;;;;;;71.72;28.77;;;2.10;99.90;;;;;;6220547;22;20009;-89
2021/12/16 17:46:59;;;;;;;65.78;29.45;;;2.10;99.90;;;;;;6220485;23;20047;-87
2021/12/16 17:49:51;;;;;;;68.40;27.52;;;2.00;99.90;;;;;;6237368;23;20012;-88
2021/12/16 17:52:44;;;;;;;65.80;28.90;;;1.90;99.90;;;;;;6216994;23;20039;-89
2021/12/16 17:55:43;;;;;;;65.82;29.55;;;1.80;99.90;;;;;;6216654;23;20008;-88
2021/12/16 17:58:36;;;;;;;65.15;29.45;;;1.80;99.90;;;;;;6217449;23;20089;-88
2021/12/16 18:01:35;;;;;;;66.18;27.30;;;1.60;99.90;;;;;;6189752;23;20084;-89
2021/12/16 18:04:24;;;;;;;74.60;31.13;;;1.60;99.90;;;;;;6178730;23;20013;-88
2021/12/16 18:07:15;;;;;;;95.15;35.83;;;1.50;99.90;;;;;;6166604;23;20014;-86
2021/12/16 18:10:07;;;;;;;86.55;37.25;;;1.50;99.90;;;;;;6163210;22;20017;-84
2021/12/16 18:12:55;;;;;;;92.50;38.28;;;1.60;99.90;;;;;;6189347;23;20119;-90
2021/12/16 18:15:44;;;;;;;101.43;44.92;;;1.70;99.90;;;;;;6199732;23;20079;-84
2021/12/16 18:18:33;;;;;;;106.72;43.55;;;1.60;99.90;;;;;;6178801;23;20396;-86
2021/12/16 18:21:21;;;;;;;117.50;50.47;;;1.60;99.90;;;;;;6197404;23;20025;-86
2021/12/16 18:24:09;;;;;;;100.38;45.00;;;1.50;99.90;;;;;;6198865;23;20025;-88
2021/12/16 18:26:56;;;;;;;103.32;46.08;;;1.50;99.90;;;;;;6184568;23;20013;-87
2021/12/16 18:29:44;;;;;;;96.30;43.97;;;1.40;99.90;;;;;;6207086;23;20013;-86
2021/12/16 18:32:41;;;;;;;102.22;43.50;;;1.30;99.90;;;;;;6206771;23;20029;-88
2021/12/16 18:35:36;;;;;;;108.90;46.13;;;1.30;99.90;;;;;;6186487;23;20036;-86
2021/12/16 18:38:29;;;;;;;124.10;49.20;;;1.20;99.90;;;;;;6208978;23;20012;-87
2021/12/16 18:41:29;;;;;;;107.15;48.58;;;1.20;99.90;;;;;;6207429;23;20017;-87
2021/12/16 18:44:32;;;;;;;109.50;49.17;;;1.20;99.90;;;;;;6184007;23;20029;-87
2021/12/16 18:47:58;;;;;;;109.78;48.78;;;1.30;99.90;;;;;;6208678;23;20053;-89
2021/12/16 18:57:11;;;;;;;98.50;41.28;;;0.90;99.90;;;;;;6203500;23;20025;-87
2021/12/16 19:00:08;;;;;;;109.40;48.10;;;0.90;99.90;;;;;;6198154;23;20064;-89
2021/12/16 19:03:01;;;;;;;102.43;45.63;;;0.90;99.90;;;;;;6194018;23;20020;-87
2021/12/16 19:05:51;;;;;;;116.22;49.03;;;0.90;99.90;;;;;;6148799;23;20036;-88
2021/12/16 19:08:39;;;;;;;123.18;49.35;;;1.00;99.90;;;;;;6170474;23;20049;-87
2021/12/16 19:11:32;;;;;;;115.85;49.60;;;1.00;99.90;;;;;;6161410;23;20026;-88
2021/12/16 19:14:30;;;;;;;106.72;46.40;;;0.90;99.90;;;;;;6179294;23;20026;-87
2021/12/16 19:17:20;;;;;;;128.48;51.15;;;0.90;99.90;;;;;;6160741;23;20022;-90
2021/12/16 19:20:17;;;;;;;155.63;66.15;;;0.80;99.90;;;;;;6161195;23;20100;-90
2021/12/16 19:23:10;;;;;;;134.55;63.28;;;0.80;99.90;;;;;;6161770;23;20029;-89
2021/12/16 19:25:59;;;;;;;133.85;58.95;;;0.80;99.90;;;;;;6165257;23;20026;-88
2021/12/16 19:28:52;;;;;;;148.52;63.75;;;0.70;99.90;;;;;;6162858;23;20022;-86
2021/12/16 19:31:40;;;;;;;152.77;68.47;;;0.70;99.90;;;;;;6164269;23;20633;-88
2021/12/16 19:34:29;;;;;;;173.82;75.13;;;0.70;99.90;;;;;;6165287;23;20093;-91
2021/12/16 19:37:30;;;;;;;169.93;70.88;;;0.70;99.90;;;;;;6145600;23;20033;-89
2021/12/16 19:40:26;;;;;;;148.45;65.70;;;0.70;99.90;;;;;;6165890;23;20025;-89
2021/12/16 19:43:14;;;;;;;150.43;63.97;;;0.70;99.90;;;;;;6162200;23;20040;-87
2021/12/16 19:46:04;;;;;;;147.15;64.88;;;0.60;99.90;;;;;;6161566;23;20049;-89
2021/12/16 19:49:00;;;;;;;157.30;66.22;;;0.50;99.90;;;;;;6163753;23;20053;-90
2021/12/16 19:51:59;;;;;;;146.18;63.10;;;0.50;99.90;;;;;;6162286;23;20318;-87
2021/12/16 19:54:55;;;;;;;194.02;79.13;;;0.50;99.90;;;;;;6184028;23;20074;-89
2021/12/16 19:58:08;;;;;;;227.15;96.15;;;0.40;99.90;;;;;;6101556;23;20050;-87
2021/12/16 20:01:24;;;;;;;218.20;90.90;;;0.40;99.90;;;;;;6105359;23;20019;-87
2021/12/16 20:04:29;;;;;;;196.98;73.47;;;0.50;99.90;;;;;;6104919;23;20022;-89
2021/12/16 20:07:25;;;;;;;179.95;71.60;;;0.50;99.90;;;;;;6101733;23;20034;-90
2021/12/16 20:10:43;;;;;;;173.13;69.80;;;0.50;99.90;;;;;;6074801;23;20077;-88
2021/12/16 20:13:39;;;;;;;168.77;63.33;;;0.50;99.90;;;;;;6075981;23;20042;-86
2021/12/16 20:16:40;;;;;;;156.18;63.03;;;0.50;99.90;;;;;;6057316;23;20090;-87
2021/12/16 20:19:35;;;;;;;174.60;68.47;;;0.50;99.90;;;;;;6074884;23;20106;-90
2021/12/16 20:22:36;;;;;;;230.90;95.65;;;0.40;99.90;;;;;;6056711;23;20025;-88
2021/12/16 20:25:52;;;;;;;201.63;87.93;;;0.40;99.90;;;;;;6075786;23;20047;-89